sensor_id;sensor_type;location;lat;lon;timestamp;P1;durP1;ratioP1;P2;durP2;ratioP2
15990;SDS011;8100;50.994;4.538;2023-09-12T00:02:18;7.50;;;4.70;;
15990;SDS011;8100;50.994;4.538;2023-09-12T00:05:05;7.82;;;4.63;;
15990;SDS011;8100;50.994;4.538;2023-09-12T00:07:53;8.82;;;4.95;;
15990;SDS011;8100;50.994;4.538;2023-09-12T00:10:40;9.35;;;4.80;;
15990;SDS011;8100;50.994;4.538;2023-09-12T00:13:29;7.72;;;4.15;;
15990;SDS011;8100;50.994;4.538;2023-09-12T00:16:17;6.72;;;4.82;;
15990;SDS011;8100;50.994;4.538;2023-09-12T00:19:04;8.25;;;4.70;;
15990;SDS011;8100;50.994;4.538;2023-09-12T00:21:51;7.57;;;4.90;;
15990;SDS011;8100;50.994;4.538;2023-09-12T00:24:39;8.57;;;4.90;;
15990;SDS011;8100;50.994;4.538;2023-09-12T00:27:26;5.95;;;4.65;;
15990;SDS011;8100;50.994;4.538;2023-09-12T00:30:15;8.23;;;5.00;;
15990;SDS011;8100;50.994;4.538;2023-09-12T00:33:02;6.82;;;4.32;;
15990;SDS011;8100;50.994;4.538;2023-09-12T00:35:50;6.40;;;4.45;;
15990;SDS011;8100;50.994;4.538;2023-09-12T00:38:37;4.90;;;3.97;;
15990;SDS011;8100;50.994;4.538;2023-09-12T00:41:24;7.22;;;4.60;;
15990;SDS011;8100;50.994;4.538;2023-09-12T00:44:12;4.93;;;4.10;;
15990;SDS011;8100;50.994;4.538;2023-09-12T00:47:01;7.60;;;4.50;;
15990;SDS011;8100;50.994;4.538;2023-09-12T00:49:50;7.43;;;4.32;;
15990;SDS011;8100;50.994;4.538;2023-09-12T00:52:38;9.40;;;4.93;;
15990;SDS011;8100;50.994;4.538;2023-09-12T00:55:26;6.93;;;4.80;;
15990;SDS011;8100;50.994;4.538;2023-09-12T00:58:13;6.07;;;4.15;;
15990;SDS011;8100;50.994;4.538;2023-09-12T01:01:01;6.25;;;3.97;;
15990;SDS011;8100;50.994;4.538;2023-09-12T01:03:51;7.75;;;4.47;;
15990;SDS011;8100;50.994;4.538;2023-09-12T01:06:38;6.10;;;4.40;;
15990;SDS011;8100;50.994;4.538;2023-09-12T01:09:26;6.53;;;4.68;;
15990;SDS011;8100;50.994;4.538;2023-09-12T01:12:14;9.05;;;4.80;;
15990;SDS011;8100;50.994;4.538;2023-09-12T01:15:01;5.68;;;4.35;;
15990;SDS011;8100;50.994;4.538;2023-09-12T01:17:51;8.48;;;4.85;;
15990;SDS011;8100;50.994;4.538;2023-09-12T01:20:41;7.55;;;4.50;;
15990;SDS011;8100;50.994;4.538;2023-09-12T01:23:40;6.15;;;4.25;;
15990;SDS011;8100;50.994;4.538;2023-09-12T01:26:38;7.65;;;4.68;;
15990;SDS011;8100;50.994;4.538;2023-09-12T01:29:36;7.30;;;4.85;;
15990;SDS011;8100;50.994;4.538;2023-09-12T01:32:24;6.97;;;4.57;;
15990;SDS011;8100;50.994;4.538;2023-09-12T01:35:13;7.10;;;4.35;;
15990;SDS011;8100;50.994;4.538;2023-09-12T01:38:00;5.50;;;4.30;;
15990;SDS011;8100;50.994;4.538;2023-09-12T01:40:48;8.15;;;4.63;;
15990;SDS011;8100;50.994;4.538;2023-09-12T01:43:36;5.88;;;4.57;;
15990;SDS011;8100;50.994;4.538;2023-09-12T01:46:26;6.57;;;4.18;;
15990;SDS011;8100;50.994;4.538;2023-09-12T01:49:15;6.18;;;4.57;;
15990;SDS011;8100;50.994;4.538;2023-09-12T01:52:06;6.88;;;4.47;;
15990;SDS011;8100;50.994;4.538;2023-09-12T01:54:53;5.88;;;4.25;;
15990;SDS011;8100;50.994;4.538;2023-09-12T01:57:42;5.70;;;4.53;;
15990;SDS011;8100;50.994;4.538;2023-09-12T02:00:29;6.75;;;3.88;;
15990;SDS011;8100;50.994;4.538;2023-09-12T02:03:18;8.38;;;4.85;;
15990;SDS011;8100;50.994;4.538;2023-09-12T02:06:06;5.35;;;4.25;;
15990;SDS011;8100;50.994;4.538;2023-09-12T02:08:53;7.63;;;4.50;;
15990;SDS011;8100;50.994;4.538;2023-09-12T02:11:40;6.05;;;4.43;;
15990;SDS011;8100;50.994;4.538;2023-09-12T02:14:28;5.75;;;4.18;;
15990;SDS011;8100;50.994;4.538;2023-09-12T02:17:15;5.10;;;4.00;;
15990;SDS011;8100;50.994;4.538;2023-09-12T02:20:04;5.18;;;4.22;;
15990;SDS011;8100;50.994;4.538;2023-09-12T02:22:53;6.90;;;4.80;;
15990;SDS011;8100;50.994;4.538;2023-09-12T02:25:40;5.40;;;4.28;;
15990;SDS011;8100;50.994;4.538;2023-09-12T02:28:27;6.72;;;4.28;;
15990;SDS011;8100;50.994;4.538;2023-09-12T02:31:14;5.35;;;4.07;;
15990;SDS011;8100;50.994;4.538;2023-09-12T02:34:02;7.10;;;4.05;;
15990;SDS011;8100;50.994;4.538;2023-09-12T02:36:50;6.47;;;4.40;;
15990;SDS011;8100;50.994;4.538;2023-09-12T02:39:38;5.97;;;4.32;;
15990;SDS011;8100;50.994;4.538;2023-09-12T02:42:26;6.70;;;4.30;;
15990;SDS011;8100;50.994;4.538;2023-09-12T02:45:13;7.70;;;4.97;;
15990;SDS011;8100;50.994;4.538;2023-09-12T02:48:00;7.00;;;4.65;;
15990;SDS011;8100;50.994;4.538;2023-09-12T02:50:48;8.20;;;5.63;;
15990;SDS011;8100;50.994;4.538;2023-09-12T02:53:36;9.00;;;6.55;;
15990;SDS011;8100;50.994;4.538;2023-09-12T02:56:24;10.45;;;6.47;;
15990;SDS011;8100;50.994;4.538;2023-09-12T02:59:11;15.68;;;9.30;;
15990;SDS011;8100;50.994;4.538;2023-09-12T03:01:58;15.15;;;8.75;;
15990;SDS011;8100;50.994;4.538;2023-09-12T03:04:45;16.77;;;9.07;;
15990;SDS011;8100;50.994;4.538;2023-09-12T03:07:33;21.65;;;11.52;;
15990;SDS011;8100;50.994;4.538;2023-09-12T03:10:21;20.15;;;10.95;;
15990;SDS011;8100;50.994;4.538;2023-09-12T03:13:11;16.08;;;9.32;;
15990;SDS011;8100;50.994;4.538;2023-09-12T03:15:58;18.15;;;11.02;;
15990;SDS011;8100;50.994;4.538;2023-09-12T03:18:46;18.88;;;11.02;;
15990;SDS011;8100;50.994;4.538;2023-09-12T03:21:33;15.43;;;9.57;;
15990;SDS011;8100;50.994;4.538;2023-09-12T03:24:20;15.23;;;9.75;;
15990;SDS011;8100;50.994;4.538;2023-09-12T03:27:11;17.33;;;9.95;;
15990;SDS011;8100;50.994;4.538;2023-09-12T03:29:58;26.90;;;15.13;;
15990;SDS011;8100;50.994;4.538;2023-09-12T03:32:46;21.70;;;12.20;;
15990;SDS011;8100;50.994;4.538;2023-09-12T03:35:33;18.75;;;11.73;;
15990;SDS011;8100;50.994;4.538;2023-09-12T03:38:20;17.17;;;10.63;;
15990;SDS011;8100;50.994;4.538;2023-09-12T03:41:08;18.92;;;10.88;;
15990;SDS011;8100;50.994;4.538;2023-09-12T03:43:57;19.08;;;10.85;;
15990;SDS011;8100;50.994;4.538;2023-09-12T03:46:44;21.13;;;11.50;;
15990;SDS011;8100;50.994;4.538;2023-09-12T03:49:31;17.55;;;11.30;;
15990;SDS011;8100;50.994;4.538;2023-09-12T03:52:18;16.75;;;11.20;;
15990;SDS011;8100;50.994;4.538;2023-09-12T03:55:06;18.13;;;11.02;;
15990;SDS011;8100;50.994;4.538;2023-09-12T03:57:54;20.48;;;10.55;;
15990;SDS011;8100;50.994;4.538;2023-09-12T04:00:42;18.48;;;11.60;;
15990;SDS011;8100;50.994;4.538;2023-09-12T04:03:30;17.83;;;10.27;;
15990;SDS011;8100;50.994;4.538;2023-09-12T04:06:17;17.30;;;10.07;;
15990;SDS011;8100;50.994;4.538;2023-09-12T04:09:04;22.83;;;10.55;;
15990;SDS011;8100;50.994;4.538;2023-09-12T04:11:52;16.92;;;9.18;;
15990;SDS011;8100;50.994;4.538;2023-09-12T04:14:39;15.13;;;9.40;;
15990;SDS011;8100;50.994;4.538;2023-09-12T04:17:28;15.55;;;9.43;;
15990;SDS011;8100;50.994;4.538;2023-09-12T04:20:15;16.90;;;9.25;;
15990;SDS011;8100;50.994;4.538;2023-09-12T04:23:02;12.93;;;8.88;;
15990;SDS011;8100;50.994;4.538;2023-09-12T04:25:50;15.52;;;10.30;;
15990;SDS011;8100;50.994;4.538;2023-09-12T04:28:37;19.20;;;11.35;;
15990;SDS011;8100;50.994;4.538;2023-09-12T04:31:24;16.65;;;10.27;;
15990;SDS011;8100;50.994;4.538;2023-09-12T04:34:13;15.10;;;9.38;;
15990;SDS011;8100;50.994;4.538;2023-09-12T04:37:00;15.15;;;9.05;;
15990;SDS011;8100;50.994;4.538;2023-09-12T04:39:48;14.20;;;8.40;;
15990;SDS011;8100;50.994;4.538;2023-09-12T04:42:36;14.63;;;8.43;;
15990;SDS011;8100;50.994;4.538;2023-09-12T04:45:23;13.77;;;7.90;;
15990;SDS011;8100;50.994;4.538;2023-09-12T04:48:10;15.77;;;8.27;;
15990;SDS011;8100;50.994;4.538;2023-09-12T04:50:59;12.30;;;8.23;;
15990;SDS011;8100;50.994;4.538;2023-09-12T04:53:46;16.10;;;9.20;;
15990;SDS011;8100;50.994;4.538;2023-09-12T04:56:37;16.58;;;9.75;;
15990;SDS011;8100;50.994;4.538;2023-09-12T04:59:24;17.70;;;9.50;;
15990;SDS011;8100;50.994;4.538;2023-09-12T05:02:11;14.90;;;9.13;;
15990;SDS011;8100;50.994;4.538;2023-09-12T05:04:58;19.27;;;9.10;;
15990;SDS011;8100;50.994;4.538;2023-09-12T05:07:49;17.17;;;9.27;;
15990;SDS011;8100;50.994;4.538;2023-09-12T05:10:37;18.70;;;9.68;;
15990;SDS011;8100;50.994;4.538;2023-09-12T05:13:25;15.93;;;9.93;;
15990;SDS011;8100;50.994;4.538;2023-09-12T05:16:12;14.98;;;9.25;;
15990;SDS011;8100;50.994;4.538;2023-09-12T05:19:00;17.52;;;9.15;;
15990;SDS011;8100;50.994;4.538;2023-09-12T05:21:47;14.00;;;8.73;;
15990;SDS011;8100;50.994;4.538;2023-09-12T05:24:36;15.82;;;8.77;;
15990;SDS011;8100;50.994;4.538;2023-09-12T05:27:23;17.85;;;9.95;;
15990;SDS011;8100;50.994;4.538;2023-09-12T05:30:10;18.52;;;10.68;;
15990;SDS011;8100;50.994;4.538;2023-09-12T05:32:58;19.17;;;11.68;;
15990;SDS011;8100;50.994;4.538;2023-09-12T05:35:45;17.83;;;11.50;;
15990;SDS011;8100;50.994;4.538;2023-09-12T05:38:33;19.50;;;11.18;;
15990;SDS011;8100;50.994;4.538;2023-09-12T05:41:22;21.15;;;12.15;;
15990;SDS011;8100;50.994;4.538;2023-09-12T05:44:09;19.25;;;12.07;;
15990;SDS011;8100;50.994;4.538;2023-09-12T05:46:58;20.58;;;10.52;;
15990;SDS011;8100;50.994;4.538;2023-09-12T05:49:45;19.92;;;11.70;;
15990;SDS011;8100;50.994;4.538;2023-09-12T05:52:33;24.00;;;12.18;;
15990;SDS011;8100;50.994;4.538;2023-09-12T05:55:21;19.27;;;11.43;;
15990;SDS011;8100;50.994;4.538;2023-09-12T05:58:11;20.92;;;11.50;;
15990;SDS011;8100;50.994;4.538;2023-09-12T06:00:58;21.55;;;12.05;;
15990;SDS011;8100;50.994;4.538;2023-09-12T06:03:45;22.50;;;12.32;;
15990;SDS011;8100;50.994;4.538;2023-09-12T06:06:32;23.55;;;12.40;;
15990;SDS011;8100;50.994;4.538;2023-09-12T06:09:20;26.73;;;12.65;;
15990;SDS011;8100;50.994;4.538;2023-09-12T06:12:07;21.55;;;11.90;;
15990;SDS011;8100;50.994;4.538;2023-09-12T06:14:56;21.15;;;11.82;;
15990;SDS011;8100;50.994;4.538;2023-09-12T06:17:43;22.25;;;12.27;;
15990;SDS011;8100;50.994;4.538;2023-09-12T06:20:30;22.88;;;13.00;;
15990;SDS011;8100;50.994;4.538;2023-09-12T06:23:18;21.30;;;12.15;;
15990;SDS011;8100;50.994;4.538;2023-09-12T06:26:05;21.95;;;12.38;;
15990;SDS011;8100;50.994;4.538;2023-09-12T06:28:52;23.02;;;12.52;;
15990;SDS011;8100;50.994;4.538;2023-09-12T06:31:41;21.23;;;12.77;;
15990;SDS011;8100;50.994;4.538;2023-09-12T06:34:28;18.80;;;11.27;;
15990;SDS011;8100;50.994;4.538;2023-09-12T06:37:16;22.08;;;12.80;;
15990;SDS011;8100;50.994;4.538;2023-09-12T06:40:04;22.48;;;14.38;;
15990;SDS011;8100;50.994;4.538;2023-09-12T06:42:52;23.08;;;13.93;;
15990;SDS011;8100;50.994;4.538;2023-09-12T06:45:40;25.35;;;14.68;;
15990;SDS011;8100;50.994;4.538;2023-09-12T06:48:29;26.10;;;14.30;;
15990;SDS011;8100;50.994;4.538;2023-09-12T06:51:16;24.33;;;15.05;;
15990;SDS011;8100;50.994;4.538;2023-09-12T06:54:04;24.50;;;14.25;;
15990;SDS011;8100;50.994;4.538;2023-09-12T06:56:51;26.08;;;14.55;;
15990;SDS011;8100;50.994;4.538;2023-09-12T06:59:38;25.40;;;14.98;;
15990;SDS011;8100;50.994;4.538;2023-09-12T07:02:26;25.63;;;14.85;;
15990;SDS011;8100;50.994;4.538;2023-09-12T07:05:15;27.45;;;14.93;;
15990;SDS011;8100;50.994;4.538;2023-09-12T07:08:02;27.13;;;15.38;;
15990;SDS011;8100;50.994;4.538;2023-09-12T07:10:50;24.50;;;15.20;;
15990;SDS011;8100;50.994;4.538;2023-09-12T07:13:40;26.17;;;15.32;;
15990;SDS011;8100;50.994;4.538;2023-09-12T07:16:27;24.85;;;15.10;;
15990;SDS011;8100;50.994;4.538;2023-09-12T07:19:14;25.13;;;14.68;;
15990;SDS011;8100;50.994;4.538;2023-09-12T07:22:03;23.85;;;14.55;;
15990;SDS011;8100;50.994;4.538;2023-09-12T07:24:51;26.00;;;14.45;;
15990;SDS011;8100;50.994;4.538;2023-09-12T07:27:38;23.73;;;14.07;;
15990;SDS011;8100;50.994;4.538;2023-09-12T07:30:25;25.10;;;13.60;;
15990;SDS011;8100;50.994;4.538;2023-09-12T07:33:14;23.70;;;14.00;;
15990;SDS011;8100;50.994;4.538;2023-09-12T07:36:01;22.27;;;13.98;;
15990;SDS011;8100;50.994;4.538;2023-09-12T07:38:50;23.52;;;14.52;;
15990;SDS011;8100;50.994;4.538;2023-09-12T07:41:38;24.95;;;14.25;;
15990;SDS011;8100;50.994;4.538;2023-09-12T07:44:25;21.25;;;13.70;;
15990;SDS011;8100;50.994;4.538;2023-09-12T07:47:15;23.38;;;13.55;;
15990;SDS011;8100;50.994;4.538;2023-09-12T07:50:02;24.88;;;14.50;;
15990;SDS011;8100;50.994;4.538;2023-09-12T07:52:52;22.90;;;13.48;;
15990;SDS011;8100;50.994;4.538;2023-09-12T07:55:40;23.63;;;13.40;;
15990;SDS011;8100;50.994;4.538;2023-09-12T07:58:31;22.88;;;13.57;;
15990;SDS011;8100;50.994;4.538;2023-09-12T08:01:19;26.17;;;13.43;;
15990;SDS011;8100;50.994;4.538;2023-09-12T08:04:06;22.25;;;13.45;;
15990;SDS011;8100;50.994;4.538;2023-09-12T08:06:53;28.70;;;13.75;;
15990;SDS011;8100;50.994;4.538;2023-09-12T08:09:50;25.40;;;14.20;;
15990;SDS011;8100;50.994;4.538;2023-09-12T08:12:40;26.35;;;13.55;;
15990;SDS011;8100;50.994;4.538;2023-09-12T08:15:27;23.40;;;13.15;;
15990;SDS011;8100;50.994;4.538;2023-09-12T08:18:15;23.40;;;13.65;;
15990;SDS011;8100;50.994;4.538;2023-09-12T08:21:02;25.50;;;14.45;;
15990;SDS011;8100;50.994;4.538;2023-09-12T08:23:49;25.52;;;14.20;;
15990;SDS011;8100;50.994;4.538;2023-09-12T08:26:36;25.23;;;13.60;;
15990;SDS011;8100;50.994;4.538;2023-09-12T08:29:25;20.88;;;13.10;;
15990;SDS011;8100;50.994;4.538;2023-09-12T08:32:14;22.02;;;12.77;;
15990;SDS011;8100;50.994;4.538;2023-09-12T08:35:01;26.13;;;13.13;;
15990;SDS011;8100;50.994;4.538;2023-09-12T08:37:49;25.95;;;12.80;;
15990;SDS011;8100;50.994;4.538;2023-09-12T08:40:36;22.50;;;12.73;;
15990;SDS011;8100;50.994;4.538;2023-09-12T08:43:24;23.25;;;11.98;;
15990;SDS011;8100;50.994;4.538;2023-09-12T08:46:14;23.40;;;12.15;;
15990;SDS011;8100;50.994;4.538;2023-09-12T08:49:03;20.27;;;12.18;;
15990;SDS011;8100;50.994;4.538;2023-09-12T08:51:52;20.27;;;12.20;;
15990;SDS011;8100;50.994;4.538;2023-09-12T08:54:39;23.00;;;13.00;;
15990;SDS011;8100;50.994;4.538;2023-09-12T08:57:27;21.90;;;11.82;;
15990;SDS011;8100;50.994;4.538;2023-09-12T09:00:14;25.42;;;12.68;;
15990;SDS011;8100;50.994;4.538;2023-09-12T09:03:03;26.40;;;13.98;;
15990;SDS011;8100;50.994;4.538;2023-09-12T09:05:51;21.55;;;11.90;;
15990;SDS011;8100;50.994;4.538;2023-09-12T09:08:40;22.80;;;12.82;;
15990;SDS011;8100;50.994;4.538;2023-09-12T09:11:29;27.02;;;13.98;;
15990;SDS011;8100;50.994;4.538;2023-09-12T09:14:17;29.45;;;14.23;;
15990;SDS011;8100;50.994;4.538;2023-09-12T09:17:04;24.92;;;13.18;;
15990;SDS011;8100;50.994;4.538;2023-09-12T09:19:53;27.30;;;14.15;;
15990;SDS011;8100;50.994;4.538;2023-09-12T09:22:40;25.00;;;13.15;;
15990;SDS011;8100;50.994;4.538;2023-09-12T09:25:43;22.95;;;13.45;;
15990;SDS011;8100;50.994;4.538;2023-09-12T09:28:39;23.73;;;12.25;;
15990;SDS011;8100;50.994;4.538;2023-09-12T09:31:26;23.02;;;12.43;;
15990;SDS011;8100;50.994;4.538;2023-09-12T09:34:14;23.65;;;11.80;;
15990;SDS011;8100;50.994;4.538;2023-09-12T09:37:03;19.20;;;11.60;;
15990;SDS011;8100;50.994;4.538;2023-09-12T09:39:51;23.25;;;11.75;;
15990;SDS011;8100;50.994;4.538;2023-09-12T09:42:39;18.00;;;10.40;;
15990;SDS011;8100;50.994;4.538;2023-09-12T09:45:26;21.75;;;11.00;;
15990;SDS011;8100;50.994;4.538;2023-09-12T09:48:17;18.30;;;9.95;;
15990;SDS011;8100;50.994;4.538;2023-09-12T09:51:06;21.48;;;10.18;;
15990;SDS011;8100;50.994;4.538;2023-09-12T09:53:54;18.83;;;9.73;;
15990;SDS011;8100;50.994;4.538;2023-09-12T09:56:46;19.60;;;10.23;;
15990;SDS011;8100;50.994;4.538;2023-09-12T09:59:34;20.45;;;10.65;;
15990;SDS011;8100;50.994;4.538;2023-09-12T10:02:21;25.25;;;12.55;;
15990;SDS011;8100;50.994;4.538;2023-09-12T10:05:12;21.25;;;12.02;;
15990;SDS011;8100;50.994;4.538;2023-09-12T10:08:03;19.55;;;10.65;;
15990;SDS011;8100;50.994;4.538;2023-09-12T10:10:56;21.67;;;11.32;;
15990;SDS011;8100;50.994;4.538;2023-09-12T10:13:46;21.42;;;11.05;;
15990;SDS011;8100;50.994;4.538;2023-09-12T10:16:38;22.58;;;11.90;;
15990;SDS011;8100;50.994;4.538;2023-09-12T10:19:32;23.98;;;12.45;;
15990;SDS011;8100;50.994;4.538;2023-09-12T10:22:25;24.55;;;12.30;;
15990;SDS011;8100;50.994;4.538;2023-09-12T10:25:17;19.17;;;11.20;;
15990;SDS011;8100;50.994;4.538;2023-09-12T10:28:05;21.45;;;11.85;;
15990;SDS011;8100;50.994;4.538;2023-09-12T10:30:53;22.95;;;12.27;;
15990;SDS011;8100;50.994;4.538;2023-09-12T10:33:44;22.92;;;12.48;;
15990;SDS011;8100;50.994;4.538;2023-09-12T10:36:32;20.35;;;11.85;;
15990;SDS011;8100;50.994;4.538;2023-09-12T10:39:21;18.67;;;11.43;;
15990;SDS011;8100;50.994;4.538;2023-09-12T10:42:10;23.00;;;12.30;;
15990;SDS011;8100;50.994;4.538;2023-09-12T10:45:00;22.85;;;12.38;;
15990;SDS011;8100;50.994;4.538;2023-09-12T10:47:49;22.50;;;11.85;;
15990;SDS011;8100;50.994;4.538;2023-09-12T10:50:37;24.08;;;11.38;;
15990;SDS011;8100;50.994;4.538;2023-09-12T10:53:26;21.33;;;12.65;;
15990;SDS011;8100;50.994;4.538;2023-09-12T10:56:15;21.67;;;12.23;;
15990;SDS011;8100;50.994;4.538;2023-09-12T10:59:13;23.25;;;12.73;;
15990;SDS011;8100;50.994;4.538;2023-09-12T11:08:22;23.55;;;12.98;;
15990;SDS011;8100;50.994;4.538;2023-09-12T11:11:18;21.88;;;12.15;;
15990;SDS011;8100;50.994;4.538;2023-09-12T11:14:07;22.20;;;12.93;;
15990;SDS011;8100;50.994;4.538;2023-09-12T11:17:12;22.55;;;12.25;;
15990;SDS011;8100;50.994;4.538;2023-09-12T11:20:09;20.35;;;12.38;;
15990;SDS011;8100;50.994;4.538;2023-09-12T11:22:57;23.33;;;11.77;;
15990;SDS011;8100;50.994;4.538;2023-09-12T11:26:03;23.70;;;12.57;;
15990;SDS011;8100;50.994;4.538;2023-09-12T11:28:52;21.83;;;12.32;;
15990;SDS011;8100;50.994;4.538;2023-09-12T11:31:40;20.27;;;11.20;;
15990;SDS011;8100;50.994;4.538;2023-09-12T11:34:38;20.85;;;11.50;;
15990;SDS011;8100;50.994;4.538;2023-09-12T11:37:29;20.45;;;12.00;;
15990;SDS011;8100;50.994;4.538;2023-09-12T11:40:17;18.90;;;11.15;;
15990;SDS011;8100;50.994;4.538;2023-09-12T11:43:17;21.63;;;11.70;;
15990;SDS011;8100;50.994;4.538;2023-09-12T11:46:07;21.00;;;11.73;;
15990;SDS011;8100;50.994;4.538;2023-09-12T11:48:55;16.85;;;10.57;;
15990;SDS011;8100;50.994;4.538;2023-09-12T11:51:47;16.90;;;10.10;;
15990;SDS011;8100;50.994;4.538;2023-09-12T11:54:36;17.50;;;9.68;;
15990;SDS011;8100;50.994;4.538;2023-09-12T11:57:24;15.20;;;9.38;;
15990;SDS011;8100;50.994;4.538;2023-09-12T12:00:12;17.58;;;9.52;;
15990;SDS011;8100;50.994;4.538;2023-09-12T12:03:04;17.30;;;9.43;;
15990;SDS011;8100;50.994;4.538;2023-09-12T12:05:53;14.63;;;9.70;;
15990;SDS011;8100;50.994;4.538;2023-09-12T12:08:41;13.30;;;8.18;;
15990;SDS011;8100;50.994;4.538;2023-09-12T12:11:30;12.38;;;7.43;;
15990;SDS011;8100;50.994;4.538;2023-09-12T12:14:17;11.30;;;7.40;;
15990;SDS011;8100;50.994;4.538;2023-09-12T12:17:06;12.68;;;8.00;;
15990;SDS011;8100;50.994;4.538;2023-09-12T12:19:55;12.07;;;7.22;;
15990;SDS011;8100;50.994;4.538;2023-09-12T12:22:42;11.70;;;7.30;;
15990;SDS011;8100;50.994;4.538;2023-09-12T12:25:31;11.32;;;7.22;;
15990;SDS011;8100;50.994;4.538;2023-09-12T12:28:21;11.40;;;7.38;;
15990;SDS011;8100;50.994;4.538;2023-09-12T12:31:08;10.23;;;7.25;;
15990;SDS011;8100;50.994;4.538;2023-09-12T12:33:56;10.77;;;6.82;;
15990;SDS011;8100;50.994;4.538;2023-09-12T12:36:45;11.35;;;6.90;;
15990;SDS011;8100;50.994;4.538;2023-09-12T12:39:33;10.85;;;6.57;;
15990;SDS011;8100;50.994;4.538;2023-09-12T12:42:21;13.10;;;7.25;;
15990;SDS011;8100;50.994;4.538;2023-09-12T12:45:12;9.63;;;6.28;;
15990;SDS011;8100;50.994;4.538;2023-09-12T12:48:01;12.50;;;6.20;;
15990;SDS011;8100;50.994;4.538;2023-09-12T12:50:48;9.80;;;6.32;;
15990;SDS011;8100;50.994;4.538;2023-09-12T12:53:39;12.00;;;6.70;;
15990;SDS011;8100;50.994;4.538;2023-09-12T12:56:27;11.85;;;7.15;;
15990;SDS011;8100;50.994;4.538;2023-09-12T12:59:15;8.73;;;6.28;;
15990;SDS011;8100;50.994;4.538;2023-09-12T13:02:04;10.35;;;6.43;;
15990;SDS011;8100;50.994;4.538;2023-09-12T13:04:52;9.40;;;6.93;;
15990;SDS011;8100;50.994;4.538;2023-09-12T13:07:39;10.55;;;6.40;;
15990;SDS011;8100;50.994;4.538;2023-09-12T13:10:26;14.93;;;6.32;;
15990;SDS011;8100;50.994;4.538;2023-09-12T13:13:13;12.80;;;6.30;;
15990;SDS011;8100;50.994;4.538;2023-09-12T13:16:01;11.00;;;5.90;;
15990;SDS011;8100;50.994;4.538;2023-09-12T13:18:51;9.30;;;5.97;;
15990;SDS011;8100;50.994;4.538;2023-09-12T13:21:38;13.35;;;5.57;;
15990;SDS011;8100;50.994;4.538;2023-09-12T13:24:26;9.27;;;5.32;;
15990;SDS011;8100;50.994;4.538;2023-09-12T13:27:13;8.25;;;5.60;;
15990;SDS011;8100;50.994;4.538;2023-09-12T13:30:01;12.57;;;5.95;;
15990;SDS011;8100;50.994;4.538;2023-09-12T13:32:50;9.15;;;5.38;;
15990;SDS011;8100;50.994;4.538;2023-09-12T13:35:39;7.68;;;4.90;;
15990;SDS011;8100;50.994;4.538;2023-09-12T13:38:27;8.65;;;5.22;;
15990;SDS011;8100;50.994;4.538;2023-09-12T13:41:14;10.68;;;5.22;;
15990;SDS011;8100;50.994;4.538;2023-09-12T13:44:01;10.95;;;6.10;;
15990;SDS011;8100;50.994;4.538;2023-09-12T13:46:48;11.02;;;6.10;;
15990;SDS011;8100;50.994;4.538;2023-09-12T13:49:36;9.40;;;6.55;;
15990;SDS011;8100;50.994;4.538;2023-09-12T13:52:26;8.52;;;5.82;;
15990;SDS011;8100;50.994;4.538;2023-09-12T13:55:13;12.43;;;6.10;;
15990;SDS011;8100;50.994;4.538;2023-09-12T13:58:01;9.90;;;5.70;;
15990;SDS011;8100;50.994;4.538;2023-09-12T14:00:49;9.88;;;6.25;;
15990;SDS011;8100;50.994;4.538;2023-09-12T14:03:36;10.30;;;6.10;;
15990;SDS011;8100;50.994;4.538;2023-09-12T14:06:24;10.00;;;6.07;;
15990;SDS011;8100;50.994;4.538;2023-09-12T14:09:12;10.13;;;6.95;;
15990;SDS011;8100;50.994;4.538;2023-09-12T14:12:01;9.07;;;6.15;;
15990;SDS011;8100;50.994;4.538;2023-09-12T14:14:48;16.02;;;6.13;;
15990;SDS011;8100;50.994;4.538;2023-09-12T14:17:35;12.38;;;6.43;;
15990;SDS011;8100;50.994;4.538;2023-09-12T14:20:23;9.15;;;5.85;;
15990;SDS011;8100;50.994;4.538;2023-09-12T14:23:10;8.05;;;5.82;;
15990;SDS011;8100;50.994;4.538;2023-09-12T14:25:59;10.90;;;6.18;;
15990;SDS011;8100;50.994;4.538;2023-09-12T14:28:46;9.45;;;5.82;;
15990;SDS011;8100;50.994;4.538;2023-09-12T14:31:33;8.75;;;5.45;;
15990;SDS011;8100;50.994;4.538;2023-09-12T14:34:22;9.80;;;5.20;;
15990;SDS011;8100;50.994;4.538;2023-09-12T14:37:12;16.10;;;6.10;;
15990;SDS011;8100;50.994;4.538;2023-09-12T14:40:00;9.13;;;5.13;;
15990;SDS011;8100;50.994;4.538;2023-09-12T14:42:51;8.80;;;4.93;;
15990;SDS011;8100;50.994;4.538;2023-09-12T14:45:39;7.43;;;4.95;;
15990;SDS011;8100;50.994;4.538;2023-09-12T14:48:26;9.38;;;5.25;;
15990;SDS011;8100;50.994;4.538;2023-09-12T14:51:16;9.15;;;5.32;;
15990;SDS011;8100;50.994;4.538;2023-09-12T14:54:03;8.98;;;5.00;;
15990;SDS011;8100;50.994;4.538;2023-09-12T14:56:51;8.18;;;5.63;;
15990;SDS011;8100;50.994;4.538;2023-09-12T14:59:40;7.28;;;5.00;;
15990;SDS011;8100;50.994;4.538;2023-09-12T15:02:27;7.85;;;4.88;;
15990;SDS011;8100;50.994;4.538;2023-09-12T15:05:17;6.38;;;4.60;;
15990;SDS011;8100;50.994;4.538;2023-09-12T15:08:04;8.00;;;4.55;;
15990;SDS011;8100;50.994;4.538;2023-09-12T15:10:52;7.10;;;4.38;;
15990;SDS011;8100;50.994;4.538;2023-09-12T15:13:39;7.93;;;3.75;;
15990;SDS011;8100;50.994;4.538;2023-09-12T15:16:28;4.65;;;3.20;;
15990;SDS011;8100;50.994;4.538;2023-09-12T15:19:19;5.63;;;3.70;;
15990;SDS011;8100;50.994;4.538;2023-09-12T15:22:07;6.10;;;3.35;;
15990;SDS011;8100;50.994;4.538;2023-09-12T15:24:54;6.18;;;3.38;;
15990;SDS011;8100;50.994;4.538;2023-09-12T15:27:41;7.13;;;4.10;;
15990;SDS011;8100;50.994;4.538;2023-09-12T15:30:29;6.65;;;3.97;;
15990;SDS011;8100;50.994;4.538;2023-09-12T15:33:19;6.43;;;4.35;;
15990;SDS011;8100;50.994;4.538;2023-09-12T15:36:07;7.47;;;4.10;;
15990;SDS011;8100;50.994;4.538;2023-09-12T15:38:55;6.13;;;3.97;;
15990;SDS011;8100;50.994;4.538;2023-09-12T15:41:43;7.65;;;4.43;;
15990;SDS011;8100;50.994;4.538;2023-09-12T15:44:30;7.88;;;4.68;;
15990;SDS011;8100;50.994;4.538;2023-09-12T15:47:18;9.65;;;4.93;;
15990;SDS011;8100;50.994;4.538;2023-09-12T15:50:07;9.68;;;5.63;;
15990;SDS011;8100;50.994;4.538;2023-09-12T15:52:55;8.90;;;5.45;;
15990;SDS011;8100;50.994;4.538;2023-09-12T15:55:42;8.00;;;5.07;;
15990;SDS011;8100;50.994;4.538;2023-09-12T15:58:29;9.25;;;5.22;;
15990;SDS011;8100;50.994;4.538;2023-09-12T16:01:16;7.85;;;5.38;;
15990;SDS011;8100;50.994;4.538;2023-09-12T16:04:04;13.25;;;6.50;;
15990;SDS011;8100;50.994;4.538;2023-09-12T16:06:53;10.95;;;6.05;;
15990;SDS011;8100;50.994;4.538;2023-09-12T16:09:40;13.10;;;6.63;;
15990;SDS011;8100;50.994;4.538;2023-09-12T16:12:28;11.10;;;6.43;;
15990;SDS011;8100;50.994;4.538;2023-09-12T16:15:15;9.27;;;6.50;;
15990;SDS011;8100;50.994;4.538;2023-09-12T16:18:02;11.57;;;6.05;;
15990;SDS011;8100;50.994;4.538;2023-09-12T16:20:50;10.48;;;6.30;;
15990;SDS011;8100;50.994;4.538;2023-09-12T16:23:38;11.38;;;6.53;;
15990;SDS011;8100;50.994;4.538;2023-09-12T16:26:26;14.35;;;7.22;;
15990;SDS011;8100;50.994;4.538;2023-09-12T16:29:13;8.45;;;5.57;;
15990;SDS011;8100;50.994;4.538;2023-09-12T16:32:00;10.55;;;5.75;;
15990;SDS011;8100;50.994;4.538;2023-09-12T16:34:48;10.57;;;5.72;;
15990;SDS011;8100;50.994;4.538;2023-09-12T16:37:35;9.55;;;6.28;;
15990;SDS011;8100;50.994;4.538;2023-09-12T16:40:24;14.55;;;6.45;;
15990;SDS011;8100;50.994;4.538;2023-09-12T16:43:11;10.50;;;5.50;;
15990;SDS011;8100;50.994;4.538;2023-09-12T16:45:58;8.50;;;5.70;;
15990;SDS011;8100;50.994;4.538;2023-09-12T16:48:45;10.82;;;6.53;;
15990;SDS011;8100;50.994;4.538;2023-09-12T16:51:33;9.73;;;6.13;;
15990;SDS011;8100;50.994;4.538;2023-09-12T16:54:20;8.55;;;5.57;;
15990;SDS011;8100;50.994;4.538;2023-09-12T16:57:09;13.10;;;5.88;;
15990;SDS011;8100;50.994;4.538;2023-09-12T16:59:59;7.72;;;5.20;;